sensor_id;sensor_type;location;lat;lon;timestamp;P1;durP1;ratioP1;P2;durP2;ratioP2
71503;SDS011;59323;50.874;7.028;2023-05-28T00:00:18;9.90;;;4.00;;
71503;SDS011;59323;50.874;7.028;2023-05-28T00:02:43;10.27;;;4.10;;
71503;SDS011;59323;50.874;7.028;2023-05-28T00:05:09;11.35;;;4.65;;
71503;SDS011;59323;50.874;7.028;2023-05-28T00:07:34;10.93;;;4.23;;
71503;SDS011;59323;50.874;7.028;2023-05-28T00:10:00;10.97;;;4.30;;
71503;SDS011;59323;50.874;7.028;2023-05-28T00:12:25;10.53;;;3.97;;
71503;SDS011;59323;50.874;7.028;2023-05-28T00:14:51;11.43;;;4.50;;
71503;SDS011;59323;50.874;7.028;2023-05-28T00:17:19;11.67;;;4.53;;
71503;SDS011;59323;50.874;7.028;2023-05-28T00:19:46;11.68;;;4.18;;
71503;SDS011;59323;50.874;7.028;2023-05-28T00:22:11;11.33;;;4.03;;
71503;SDS011;59323;50.874;7.028;2023-05-28T00:24:37;8.47;;;3.50;;
71503;SDS011;59323;50.874;7.028;2023-05-28T00:27:02;12.55;;;4.07;;
71503;SDS011;59323;50.874;7.028;2023-05-28T00:29:28;9.30;;;4.13;;
71503;SDS011;59323;50.874;7.028;2023-05-28T00:31:56;8.32;;;3.40;;
71503;SDS011;59323;50.874;7.028;2023-05-28T00:34:22;11.13;;;3.70;;
71503;SDS011;59323;50.874;7.028;2023-05-28T00:36:48;10.38;;;3.88;;
71503;SDS011;59323;50.874;7.028;2023-05-28T00:39:19;10.13;;;4.00;;
71503;SDS011;59323;50.874;7.028;2023-05-28T00:41:45;8.18;;;3.42;;
71503;SDS011;59323;50.874;7.028;2023-05-28T00:44:11;10.90;;;3.87;;
71503;SDS011;59323;50.874;7.028;2023-05-28T00:46:38;9.30;;;3.73;;
71503;SDS011;59323;50.874;7.028;2023-05-28T00:49:06;12.23;;;4.82;;
71503;SDS011;59323;50.874;7.028;2023-05-28T00:51:32;12.60;;;3.40;;
71503;SDS011;59323;50.874;7.028;2023-05-28T00:54:00;9.75;;;3.75;;
71503;SDS011;59323;50.874;7.028;2023-05-28T00:56:25;11.37;;;3.37;;
71503;SDS011;59323;50.874;7.028;2023-05-28T00:58:51;8.63;;;3.33;;
71503;SDS011;59323;50.874;7.028;2023-05-28T01:01:18;8.70;;;3.70;;
71503;SDS011;59323;50.874;7.028;2023-05-28T01:03:44;11.25;;;4.00;;
71503;SDS011;59323;50.874;7.028;2023-05-28T01:06:10;11.00;;;3.80;;
71503;SDS011;59323;50.874;7.028;2023-05-28T01:08:38;11.13;;;3.90;;
71503;SDS011;59323;50.874;7.028;2023-05-28T01:11:05;10.57;;;4.20;;
71503;SDS011;59323;50.874;7.028;2023-05-28T01:13:58;10.15;;;4.00;;
71503;SDS011;59323;50.874;7.028;2023-05-28T01:16:24;10.25;;;3.70;;
71503;SDS011;59323;50.874;7.028;2023-05-28T01:18:53;9.45;;;3.63;;
71503;SDS011;59323;50.874;7.028;2023-05-28T01:21:20;11.17;;;4.13;;
71503;SDS011;59323;50.874;7.028;2023-05-28T01:23:47;8.32;;;3.45;;
71503;SDS011;59323;50.874;7.028;2023-05-28T01:26:14;9.70;;;3.45;;
71503;SDS011;59323;50.874;7.028;2023-05-28T01:28:43;8.17;;;3.50;;
71503;SDS011;59323;50.874;7.028;2023-05-28T01:31:10;10.65;;;3.78;;
71503;SDS011;59323;50.874;7.028;2023-05-28T01:33:36;9.88;;;4.03;;
71503;SDS011;59323;50.874;7.028;2023-05-28T01:36:03;8.50;;;3.45;;
71503;SDS011;59323;50.874;7.028;2023-05-28T01:38:32;9.83;;;4.00;;
71503;SDS011;59323;50.874;7.028;2023-05-28T01:40:59;10.25;;;3.67;;
71503;SDS011;59323;50.874;7.028;2023-05-28T01:43:25;10.88;;;3.92;;
71503;SDS011;59323;50.874;7.028;2023-05-28T01:45:51;12.48;;;4.10;;
71503;SDS011;59323;50.874;7.028;2023-05-28T01:48:17;11.43;;;3.87;;
71503;SDS011;59323;50.874;7.028;2023-05-28T01:50:44;11.80;;;4.18;;
71503;SDS011;59323;50.874;7.028;2023-05-28T01:53:09;9.97;;;3.67;;
71503;SDS011;59323;50.874;7.028;2023-05-28T01:55:34;9.13;;;3.90;;
71503;SDS011;59323;50.874;7.028;2023-05-28T01:58:00;9.23;;;3.70;;
71503;SDS011;59323;50.874;7.028;2023-05-28T02:00:25;10.57;;;4.30;;
71503;SDS011;59323;50.874;7.028;2023-05-28T02:02:51;11.50;;;3.92;;
71503;SDS011;59323;50.874;7.028;2023-05-28T02:05:17;12.63;;;4.20;;
71503;SDS011;59323;50.874;7.028;2023-05-28T02:07:42;9.38;;;3.80;;
71503;SDS011;59323;50.874;7.028;2023-05-28T02:10:08;12.03;;;4.17;;
71503;SDS011;59323;50.874;7.028;2023-05-28T02:12:33;10.03;;;3.97;;
71503;SDS011;59323;50.874;7.028;2023-05-28T02:14:59;10.30;;;3.60;;
71503;SDS011;59323;50.874;7.028;2023-05-28T02:17:24;9.30;;;4.03;;
71503;SDS011;59323;50.874;7.028;2023-05-28T02:19:49;11.63;;;4.23;;
71503;SDS011;59323;50.874;7.028;2023-05-28T02:22:15;12.47;;;4.40;;
71503;SDS011;59323;50.874;7.028;2023-05-28T02:24:41;11.25;;;4.53;;
71503;SDS011;59323;50.874;7.028;2023-05-28T02:27:06;9.27;;;4.60;;
71503;SDS011;59323;50.874;7.028;2023-05-28T02:29:32;9.32;;;3.85;;
71503;SDS011;59323;50.874;7.028;2023-05-28T02:31:59;9.18;;;3.70;;
71503;SDS011;59323;50.874;7.028;2023-05-28T02:34:25;9.53;;;3.90;;
71503;SDS011;59323;50.874;7.028;2023-05-28T02:37:02;11.77;;;4.07;;
71503;SDS011;59323;50.874;7.028;2023-05-28T02:39:27;10.80;;;3.85;;
71503;SDS011;59323;50.874;7.028;2023-05-28T02:41:56;11.37;;;4.30;;
71503;SDS011;59323;50.874;7.028;2023-05-28T02:44:21;8.73;;;4.05;;
71503;SDS011;59323;50.874;7.028;2023-05-28T02:46:46;8.80;;;3.77;;
71503;SDS011;59323;50.874;7.028;2023-05-28T02:49:12;11.03;;;4.07;;
71503;SDS011;59323;50.874;7.028;2023-05-28T02:51:38;9.90;;;4.10;;
71503;SDS011;59323;50.874;7.028;2023-05-28T02:54:03;10.83;;;4.23;;
71503;SDS011;59323;50.874;7.028;2023-05-28T02:56:28;9.70;;;3.85;;
71503;SDS011;59323;50.874;7.028;2023-05-28T02:58:54;10.07;;;3.93;;
71503;SDS011;59323;50.874;7.028;2023-05-28T03:01:19;10.17;;;4.20;;
71503;SDS011;59323;50.874;7.028;2023-05-28T03:03:45;9.60;;;3.80;;
71503;SDS011;59323;50.874;7.028;2023-05-28T03:06:10;10.77;;;4.23;;
71503;SDS011;59323;50.874;7.028;2023-05-28T03:08:36;10.95;;;3.85;;
71503;SDS011;59323;50.874;7.028;2023-05-28T03:11:01;10.30;;;4.07;;
71503;SDS011;59323;50.874;7.028;2023-05-28T03:13:26;12.50;;;4.10;;
71503;SDS011;59323;50.874;7.028;2023-05-28T03:15:52;9.20;;;4.10;;
71503;SDS011;59323;50.874;7.028;2023-05-28T03:18:27;10.77;;;4.53;;
71503;SDS011;59323;50.874;7.028;2023-05-28T03:20:53;9.32;;;4.47;;
71503;SDS011;59323;50.874;7.028;2023-05-28T03:23:19;10.30;;;4.17;;
71503;SDS011;59323;50.874;7.028;2023-05-28T03:25:44;11.65;;;4.15;;
71503;SDS011;59323;50.874;7.028;2023-05-28T03:28:10;11.10;;;4.30;;
71503;SDS011;59323;50.874;7.028;2023-05-28T03:30:35;9.73;;;4.57;;
71503;SDS011;59323;50.874;7.028;2023-05-28T03:33:00;8.40;;;3.87;;
71503;SDS011;59323;50.874;7.028;2023-05-28T03:35:26;10.73;;;4.37;;
71503;SDS011;59323;50.874;7.028;2023-05-28T03:37:51;9.93;;;3.80;;
71503;SDS011;59323;50.874;7.028;2023-05-28T03:40:16;13.53;;;4.80;;
71503;SDS011;59323;50.874;7.028;2023-05-28T03:42:42;10.13;;;3.90;;
71503;SDS011;59323;50.874;7.028;2023-05-28T03:45:07;11.70;;;4.00;;
71503;SDS011;59323;50.874;7.028;2023-05-28T03:47:33;8.35;;;3.85;;
71503;SDS011;59323;50.874;7.028;2023-05-28T03:49:59;12.32;;;4.35;;
71503;SDS011;59323;50.874;7.028;2023-05-28T03:52:25;9.90;;;4.30;;
71503;SDS011;59323;50.874;7.028;2023-05-28T03:54:50;9.90;;;4.40;;
71503;SDS011;59323;50.874;7.028;2023-05-28T03:57:16;12.07;;;3.90;;
71503;SDS011;59323;50.874;7.028;2023-05-28T03:59:41;12.00;;;4.60;;
71503;SDS011;59323;50.874;7.028;2023-05-28T04:02:06;10.90;;;3.90;;
71503;SDS011;59323;50.874;7.028;2023-05-28T04:04:32;12.40;;;4.33;;
71503;SDS011;59323;50.874;7.028;2023-05-28T04:09:57;12.13;;;3.83;;
71503;SDS011;59323;50.874;7.028;2023-05-28T04:16:02;12.07;;;4.20;;
71503;SDS011;59323;50.874;7.028;2023-05-28T04:18:33;11.23;;;4.00;;
71503;SDS011;59323;50.874;7.028;2023-05-28T04:21:04;11.73;;;4.68;;
71503;SDS011;59323;50.874;7.028;2023-05-28T04:23:48;10.37;;;4.27;;
71503;SDS011;59323;50.874;7.028;2023-05-28T04:26:47;11.90;;;4.45;;
71503;SDS011;59323;50.874;7.028;2023-05-28T04:33:22;12.60;;;4.72;;
71503;SDS011;59323;50.874;7.028;2023-05-28T04:35:55;12.70;;;4.32;;
71503;SDS011;59323;50.874;7.028;2023-05-28T04:38:35;10.40;;;4.20;;
71503;SDS011;59323;50.874;7.028;2023-05-28T04:41:35;12.13;;;4.28;;
71503;SDS011;59323;50.874;7.028;2023-05-28T04:44:31;11.00;;;4.70;;
71503;SDS011;59323;50.874;7.028;2023-05-28T04:47:07;11.73;;;4.10;;
71503;SDS011;59323;50.874;7.028;2023-05-28T04:50:17;12.02;;;4.50;;
71503;SDS011;59323;50.874;7.028;2023-05-28T04:52:43;10.97;;;4.47;;
71503;SDS011;59323;50.874;7.028;2023-05-28T04:55:30;11.68;;;4.15;;
71503;SDS011;59323;50.874;7.028;2023-05-28T04:58:49;11.90;;;4.03;;
71503;SDS011;59323;50.874;7.028;2023-05-28T05:01:14;11.00;;;4.40;;
71503;SDS011;59323;50.874;7.028;2023-05-28T05:06:57;12.13;;;4.60;;
71503;SDS011;59323;50.874;7.028;2023-05-28T05:09:42;11.98;;;5.22;;
71503;SDS011;59323;50.874;7.028;2023-05-28T05:12:46;9.35;;;3.75;;
71503;SDS011;59323;50.874;7.028;2023-05-28T05:15:58;10.27;;;4.50;;
71503;SDS011;59323;50.874;7.028;2023-05-28T05:18:41;9.85;;;4.10;;
71503;SDS011;59323;50.874;7.028;2023-05-28T05:21:46;10.37;;;3.60;;
71503;SDS011;59323;50.874;7.028;2023-05-28T05:32:07;9.18;;;3.80;;
71503;SDS011;59323;50.874;7.028;2023-05-28T05:34:36;11.35;;;4.38;;
71503;SDS011;59323;50.874;7.028;2023-05-28T05:43:22;11.43;;;3.72;;
71503;SDS011;59323;50.874;7.028;2023-05-28T05:46:59;12.52;;;4.25;;
71503;SDS011;59323;50.874;7.028;2023-05-28T05:49:36;9.40;;;3.47;;
71503;SDS011;59323;50.874;7.028;2023-05-28T05:52:02;11.00;;;4.47;;
71503;SDS011;59323;50.874;7.028;2023-05-28T05:54:27;9.87;;;3.77;;
71503;SDS011;59323;50.874;7.028;2023-05-28T05:56:52;12.03;;;4.03;;
71503;SDS011;59323;50.874;7.028;2023-05-28T05:59:18;11.33;;;4.10;;
71503;SDS011;59323;50.874;7.028;2023-05-28T06:01:43;9.68;;;4.25;;
71503;SDS011;59323;50.874;7.028;2023-05-28T06:04:08;10.90;;;3.73;;
71503;SDS011;59323;50.874;7.028;2023-05-28T06:06:34;11.47;;;3.70;;
71503;SDS011;59323;50.874;7.028;2023-05-28T06:09:01;11.90;;;4.35;;
71503;SDS011;59323;50.874;7.028;2023-05-28T06:11:27;9.83;;;3.90;;
71503;SDS011;59323;50.874;7.028;2023-05-28T06:13:52;13.03;;;5.10;;
71503;SDS011;59323;50.874;7.028;2023-05-28T06:16:19;9.98;;;4.38;;
71503;SDS011;59323;50.874;7.028;2023-05-28T06:18:45;10.32;;;4.20;;
71503;SDS011;59323;50.874;7.028;2023-05-28T06:21:10;10.93;;;4.32;;
71503;SDS011;59323;50.874;7.028;2023-05-28T06:23:36;10.80;;;3.30;;
71503;SDS011;59323;50.874;7.028;2023-05-28T06:26:01;11.00;;;4.23;;
71503;SDS011;59323;50.874;7.028;2023-05-28T06:28:28;10.95;;;4.80;;
71503;SDS011;59323;50.874;7.028;2023-05-28T06:30:54;11.50;;;4.03;;
71503;SDS011;59323;50.874;7.028;2023-05-28T06:33:19;10.17;;;4.33;;
71503;SDS011;59323;50.874;7.028;2023-05-28T06:35:44;10.63;;;4.40;;
71503;SDS011;59323;50.874;7.028;2023-05-28T06:38:10;11.73;;;4.10;;
71503;SDS011;59323;50.874;7.028;2023-05-28T06:40:35;10.13;;;4.43;;
71503;SDS011;59323;50.874;7.028;2023-05-28T06:43:01;10.87;;;4.13;;
71503;SDS011;59323;50.874;7.028;2023-05-28T06:45:29;10.50;;;4.03;;
71503;SDS011;59323;50.874;7.028;2023-05-28T06:47:54;10.65;;;4.10;;
71503;SDS011;59323;50.874;7.028;2023-05-28T06:50:19;11.47;;;4.53;;
71503;SDS011;59323;50.874;7.028;2023-05-28T06:52:45;14.23;;;4.27;;
71503;SDS011;59323;50.874;7.028;2023-05-28T06:55:11;9.77;;;4.28;;
71503;SDS011;59323;50.874;7.028;2023-05-28T06:57:37;8.85;;;4.20;;
71503;SDS011;59323;50.874;7.028;2023-05-28T07:00:03;12.73;;;4.00;;
71503;SDS011;59323;50.874;7.028;2023-05-28T07:02:34;10.68;;;4.07;;
71503;SDS011;59323;50.874;7.028;2023-05-28T07:04:59;9.63;;;4.00;;
71503;SDS011;59323;50.874;7.028;2023-05-28T07:07:25;13.23;;;4.23;;
71503;SDS011;59323;50.874;7.028;2023-05-28T07:09:50;10.50;;;4.03;;
71503;SDS011;59323;50.874;7.028;2023-05-28T07:12:16;9.40;;;4.23;;
71503;SDS011;59323;50.874;7.028;2023-05-28T07:14:41;14.80;;;4.70;;
71503;SDS011;59323;50.874;7.028;2023-05-28T07:17:06;9.00;;;4.13;;
71503;SDS011;59323;50.874;7.028;2023-05-28T07:19:32;9.48;;;3.90;;
71503;SDS011;59323;50.874;7.028;2023-05-28T07:21:57;9.87;;;4.63;;
71503;SDS011;59323;50.874;7.028;2023-05-28T07:24:23;10.53;;;4.40;;
71503;SDS011;59323;50.874;7.028;2023-05-28T07:26:48;9.17;;;4.00;;
71503;SDS011;59323;50.874;7.028;2023-05-28T07:29:16;16.42;;;4.05;;
71503;SDS011;59323;50.874;7.028;2023-05-28T07:31:43;9.63;;;3.90;;
71503;SDS011;59323;50.874;7.028;2023-05-28T07:36:38;11.65;;;3.92;;
71503;SDS011;59323;50.874;7.028;2023-05-28T07:39:03;10.67;;;3.97;;
71503;SDS011;59323;50.874;7.028;2023-05-28T07:41:29;12.85;;;3.90;;
71503;SDS011;59323;50.874;7.028;2023-05-28T07:43:55;10.50;;;3.80;;
71503;SDS011;59323;50.874;7.028;2023-05-28T07:46:20;9.43;;;4.07;;
71503;SDS011;59323;50.874;7.028;2023-05-28T07:48:46;11.93;;;3.63;;
71503;SDS011;59323;50.874;7.028;2023-05-28T07:51:13;11.85;;;4.40;;
71503;SDS011;59323;50.874;7.028;2023-05-28T07:53:39;10.20;;;4.07;;
71503;SDS011;59323;50.874;7.028;2023-05-28T07:56:06;14.77;;;5.23;;
71503;SDS011;59323;50.874;7.028;2023-05-28T07:58:34;11.38;;;4.00;;
71503;SDS011;59323;50.874;7.028;2023-05-28T08:11:12;8.30;;;3.40;;
71503;SDS011;59323;50.874;7.028;2023-05-28T08:20:37;12.65;;;3.85;;
71503;SDS011;59323;50.874;7.028;2023-05-28T08:23:06;8.88;;;4.63;;
71503;SDS011;59323;50.874;7.028;2023-05-28T08:25:42;10.20;;;4.20;;
71503;SDS011;59323;50.874;7.028;2023-05-28T08:28:08;9.57;;;3.80;;
71503;SDS011;59323;50.874;7.028;2023-05-28T08:30:45;10.90;;;3.93;;
71503;SDS011;59323;50.874;7.028;2023-05-28T08:33:13;10.02;;;3.97;;
71503;SDS011;59323;50.874;7.028;2023-05-28T08:38:57;8.63;;;3.85;;
71503;SDS011;59323;50.874;7.028;2023-05-28T08:52:34;10.65;;;3.50;;
71503;SDS011;59323;50.874;7.028;2023-05-28T09:08:43;11.05;;;4.13;;
71503;SDS011;59323;50.874;7.028;2023-05-28T09:17:48;8.73;;;3.63;;
71503;SDS011;59323;50.874;7.028;2023-05-28T09:20:17;11.35;;;3.90;;
71503;SDS011;59323;50.874;7.028;2023-05-28T09:22:45;11.52;;;4.13;;
71503;SDS011;59323;50.874;7.028;2023-05-28T09:25:11;9.48;;;3.88;;
71503;SDS011;59323;50.874;7.028;2023-05-28T09:27:42;10.30;;;3.55;;
71503;SDS011;59323;50.874;7.028;2023-05-28T09:30:09;9.57;;;3.80;;
71503;SDS011;59323;50.874;7.028;2023-05-28T09:32:36;8.63;;;3.15;;
71503;SDS011;59323;50.874;7.028;2023-05-28T09:35:06;11.57;;;3.83;;
71503;SDS011;59323;50.874;7.028;2023-05-28T09:37:34;8.40;;;3.78;;
71503;SDS011;59323;50.874;7.028;2023-05-28T09:40:07;8.73;;;3.58;;
71503;SDS011;59323;50.874;7.028;2023-05-28T09:42:36;8.70;;;3.60;;
71503;SDS011;59323;50.874;7.028;2023-05-28T09:45:08;8.25;;;3.42;;
71503;SDS011;59323;50.874;7.028;2023-05-28T09:47:41;10.43;;;4.13;;
71503;SDS011;59323;50.874;7.028;2023-05-28T09:50:10;8.07;;;3.40;;
71503;SDS011;59323;50.874;7.028;2023-05-28T09:52:37;7.32;;;3.40;;
71503;SDS011;59323;50.874;7.028;2023-05-28T09:55:06;10.33;;;3.50;;
71503;SDS011;59323;50.874;7.028;2023-05-28T09:57:32;7.68;;;3.10;;
71503;SDS011;59323;50.874;7.028;2023-05-28T09:59:59;8.10;;;3.55;;
71503;SDS011;59323;50.874;7.028;2023-05-28T10:05:21;8.45;;;3.97;;
71503;SDS011;59323;50.874;7.028;2023-05-28T10:07:51;9.27;;;3.70;;
71503;SDS011;59323;50.874;7.028;2023-05-28T10:10:18;8.70;;;3.97;;
71503;SDS011;59323;50.874;7.028;2023-05-28T10:12:45;7.72;;;4.05;;
71503;SDS011;59323;50.874;7.028;2023-05-28T10:15:12;9.45;;;3.67;;
71503;SDS011;59323;50.874;7.028;2023-05-28T10:17:38;9.40;;;3.88;;
71503;SDS011;59323;50.874;7.028;2023-05-28T10:20:04;8.90;;;3.30;;
71503;SDS011;59323;50.874;7.028;2023-05-28T10:22:35;7.30;;;3.47;;
71503;SDS011;59323;50.874;7.028;2023-05-28T10:25:01;11.02;;;4.10;;
71503;SDS011;59323;50.874;7.028;2023-05-28T10:27:30;8.87;;;3.50;;
71503;SDS011;59323;50.874;7.028;2023-05-28T10:29:57;8.50;;;3.83;;
71503;SDS011;59323;50.874;7.028;2023-05-28T10:32:22;8.70;;;3.80;;
71503;SDS011;59323;50.874;7.028;2023-05-28T10:34:48;8.45;;;3.70;;
71503;SDS011;59323;50.874;7.028;2023-05-28T10:37:13;9.33;;;3.90;;
71503;SDS011;59323;50.874;7.028;2023-05-28T10:39:48;8.68;;;3.60;;
71503;SDS011;59323;50.874;7.028;2023-05-28T10:42:14;9.33;;;3.40;;
71503;SDS011;59323;50.874;7.028;2023-05-28T10:47:53;8.82;;;4.05;;
71503;SDS011;59323;50.874;7.028;2023-05-28T10:50:19;9.23;;;3.80;;
71503;SDS011;59323;50.874;7.028;2023-05-28T10:55:50;10.30;;;4.05;;
71503;SDS011;59323;50.874;7.028;2023-05-28T10:58:33;9.45;;;3.60;;
71503;SDS011;59323;50.874;7.028;2023-05-28T11:15:40;10.60;;;3.95;;
71503;SDS011;59323;50.874;7.028;2023-05-28T11:18:09;8.55;;;3.80;;
71503;SDS011;59323;50.874;7.028;2023-05-28T11:20:43;9.00;;;3.90;;
71503;SDS011;59323;50.874;7.028;2023-05-28T11:26:41;8.05;;;3.45;;
71503;SDS011;59323;50.874;7.028;2023-05-28T11:32:37;8.68;;;3.95;;
71503;SDS011;59323;50.874;7.028;2023-05-28T11:35:27;7.67;;;3.23;;
71503;SDS011;59323;50.874;7.028;2023-05-28T11:38:04;10.48;;;4.10;;
71503;SDS011;59323;50.874;7.028;2023-05-28T11:40:38;11.02;;;4.30;;
71503;SDS011;59323;50.874;7.028;2023-05-28T11:43:03;11.88;;;4.60;;
71503;SDS011;59323;50.874;7.028;2023-05-28T11:45:35;11.70;;;4.30;;
71503;SDS011;59323;50.874;7.028;2023-05-28T11:58:05;7.93;;;3.75;;
71503;SDS011;59323;50.874;7.028;2023-05-28T12:00:54;7.72;;;3.58;;
71503;SDS011;59323;50.874;7.028;2023-05-28T12:03:25;7.73;;;3.70;;
71503;SDS011;59323;50.874;7.028;2023-05-28T12:05:51;7.90;;;3.85;;
71503;SDS011;59323;50.874;7.028;2023-05-28T12:08:17;9.60;;;4.17;;
71503;SDS011;59323;50.874;7.028;2023-05-28T12:10:44;7.13;;;3.63;;
71503;SDS011;59323;50.874;7.028;2023-05-28T12:13:11;9.00;;;4.03;;
71503;SDS011;59323;50.874;7.028;2023-05-28T12:15:37;9.48;;;3.78;;
71503;SDS011;59323;50.874;7.028;2023-05-28T12:18:04;7.90;;;3.40;;
71503;SDS011;59323;50.874;7.028;2023-05-28T12:24:12;9.15;;;3.92;;
71503;SDS011;59323;50.874;7.028;2023-05-28T12:26:39;8.75;;;3.72;;
71503;SDS011;59323;50.874;7.028;2023-05-28T12:29:14;8.10;;;4.05;;
71503;SDS011;59323;50.874;7.028;2023-05-28T12:31:40;8.03;;;3.83;;
71503;SDS011;59323;50.874;7.028;2023-05-28T12:34:05;9.02;;;4.00;;
71503;SDS011;59323;50.874;7.028;2023-05-28T12:36:30;9.37;;;3.80;;
71503;SDS011;59323;50.874;7.028;2023-05-28T12:38:57;8.75;;;4.07;;
71503;SDS011;59323;50.874;7.028;2023-05-28T12:41:23;7.73;;;3.50;;
71503;SDS011;59323;50.874;7.028;2023-05-28T12:43:48;7.63;;;3.40;;
71503;SDS011;59323;50.874;7.028;2023-05-28T12:46:14;8.75;;;3.58;;
71503;SDS011;59323;50.874;7.028;2023-05-28T12:48:39;8.40;;;3.60;;
71503;SDS011;59323;50.874;7.028;2023-05-28T12:51:05;9.87;;;3.63;;
71503;SDS011;59323;50.874;7.028;2023-05-28T12:53:33;9.82;;;3.60;;
71503;SDS011;59323;50.874;7.028;2023-05-28T12:55:59;7.97;;;3.45;;
71503;SDS011;59323;50.874;7.028;2023-05-28T12:58:24;8.23;;;3.90;;
71503;SDS011;59323;50.874;7.028;2023-05-28T13:00:53;7.57;;;3.77;;
71503;SDS011;59323;50.874;7.028;2023-05-28T13:03:18;7.82;;;3.80;;
71503;SDS011;59323;50.874;7.028;2023-05-28T13:05:44;9.63;;;3.70;;
71503;SDS011;59323;50.874;7.028;2023-05-28T13:08:11;7.95;;;3.25;;
71503;SDS011;59323;50.874;7.028;2023-05-28T13:10:39;7.87;;;4.03;;
71503;SDS011;59323;50.874;7.028;2023-05-28T13:13:09;8.27;;;3.55;;
71503;SDS011;59323;50.874;7.028;2023-05-28T13:15:35;8.80;;;3.70;;
71503;SDS011;59323;50.874;7.028;2023-05-28T13:18:02;8.35;;;3.10;;
71503;SDS011;59323;50.874;7.028;2023-05-28T13:20:29;6.93;;;3.50;;
71503;SDS011;59323;50.874;7.028;2023-05-28T13:22:59;9.75;;;3.90;;
71503;SDS011;59323;50.874;7.028;2023-05-28T13:25:25;9.23;;;3.70;;
71503;SDS011;59323;50.874;7.028;2023-05-28T13:27:53;8.60;;;3.87;;
71503;SDS011;59323;50.874;7.028;2023-05-28T13:30:19;8.30;;;3.97;;
71503;SDS011;59323;50.874;7.028;2023-05-28T13:32:44;8.53;;;3.60;;
71503;SDS011;59323;50.874;7.028;2023-05-28T13:35:09;9.63;;;3.77;;
71503;SDS011;59323;50.874;7.028;2023-05-28T13:37:36;6.95;;;3.53;;
71503;SDS011;59323;50.874;7.028;2023-05-28T13:40:03;8.95;;;3.90;;
71503;SDS011;59323;50.874;7.028;2023-05-28T13:42:35;7.18;;;3.80;;
71503;SDS011;59323;50.874;7.028;2023-05-28T13:45:00;8.13;;;3.00;;
71503;SDS011;59323;50.874;7.028;2023-05-28T13:47:26;13.20;;;3.20;;
71503;SDS011;59323;50.874;7.028;2023-05-28T13:50:00;6.47;;;3.37;;
71503;SDS011;59323;50.874;7.028;2023-05-28T13:52:26;8.67;;;2.97;;
71503;SDS011;59323;50.874;7.028;2023-05-28T13:54:52;8.52;;;3.25;;
71503;SDS011;59323;50.874;7.028;2023-05-28T13:57:17;9.70;;;3.60;;
71503;SDS011;59323;50.874;7.028;2023-05-28T13:59:47;9.48;;;3.63;;
71503;SDS011;59323;50.874;7.028;2023-05-28T14:02:13;7.80;;;4.03;;
71503;SDS011;59323;50.874;7.028;2023-05-28T14:04:38;7.90;;;3.33;;
71503;SDS011;59323;50.874;7.028;2023-05-28T14:07:06;7.05;;;3.72;;
71503;SDS011;59323;50.874;7.028;2023-05-28T14:09:33;8.07;;;3.22;;
71503;SDS011;59323;50.874;7.028;2023-05-28T14:11:59;8.10;;;3.60;;
71503;SDS011;59323;50.874;7.028;2023-05-28T14:14:25;9.40;;;3.28;;
71503;SDS011;59323;50.874;7.028;2023-05-28T14:16:51;7.13;;;3.77;;
71503;SDS011;59323;50.874;7.028;2023-05-28T14:19:16;7.43;;;3.10;;
71503;SDS011;59323;50.874;7.028;2023-05-28T14:21:42;9.70;;;2.97;;
71503;SDS011;59323;50.874;7.028;2023-05-28T14:24:08;9.55;;;3.60;;
71503;SDS011;59323;50.874;7.028;2023-05-28T14:26:34;7.00;;;3.07;;
71503;SDS011;59323;50.874;7.028;2023-05-28T14:28:59;8.13;;;3.53;;
71503;SDS011;59323;50.874;7.028;2023-05-28T14:31:24;7.80;;;3.57;;
71503;SDS011;59323;50.874;7.028;2023-05-28T14:33:50;6.95;;;3.22;;
71503;SDS011;59323;50.874;7.028;2023-05-28T14:36:15;7.70;;;2.87;;
71503;SDS011;59323;50.874;7.028;2023-05-28T14:38:44;8.57;;;3.20;;
71503;SDS011;59323;50.874;7.028;2023-05-28T14:41:14;6.68;;;2.90;;
71503;SDS011;59323;50.874;7.028;2023-05-28T14:43:45;7.28;;;3.00;;
71503;SDS011;59323;50.874;7.028;2023-05-28T14:46:10;8.23;;;3.03;;
71503;SDS011;59323;50.874;7.028;2023-05-28T14:48:35;8.93;;;3.30;;
71503;SDS011;59323;50.874;7.028;2023-05-28T14:51:01;8.27;;;3.03;;
71503;SDS011;59323;50.874;7.028;2023-05-28T14:53:27;9.25;;;2.88;;
71503;SDS011;59323;50.874;7.028;2023-05-28T14:55:53;6.03;;;2.83;;
71503;SDS011;59323;50.874;7.028;2023-05-28T14:58:18;7.70;;;3.20;;
71503;SDS011;59323;50.874;7.028;2023-05-28T15:00:44;5.40;;;2.90;;
71503;SDS011;59323;50.874;7.028;2023-05-28T15:03:10;8.07;;;3.40;;
71503;SDS011;59323;50.874;7.028;2023-05-28T15:05:36;9.17;;;3.20;;
71503;SDS011;59323;50.874;7.028;2023-05-28T15:08:01;7.73;;;3.10;;
71503;SDS011;59323;50.874;7.028;2023-05-28T15:10:26;7.63;;;3.53;;
71503;SDS011;59323;50.874;7.028;2023-05-28T15:12:59;7.25;;;2.92;;
71503;SDS011;59323;50.874;7.028;2023-05-28T15:15:25;7.83;;;3.13;;
71503;SDS011;59323;50.874;7.028;2023-05-28T15:17:56;9.25;;;3.17;;
71503;SDS011;59323;50.874;7.028;2023-05-28T15:20:22;8.63;;;3.70;;
71503;SDS011;59323;50.874;7.028;2023-05-28T15:22:47;6.30;;;2.40;;
71503;SDS011;59323;50.874;7.028;2023-05-28T15:25:13;13.60;;;3.33;;
71503;SDS011;59323;50.874;7.028;2023-05-28T15:27:38;6.90;;;3.00;;
71503;SDS011;59323;50.874;7.028;2023-05-28T15:30:04;7.63;;;3.20;;
71503;SDS011;59323;50.874;7.028;2023-05-28T15:32:30;10.20;;;3.10;;
71503;SDS011;59323;50.874;7.028;2023-05-28T15:34:56;9.90;;;3.13;;
71503;SDS011;59323;50.874;7.028;2023-05-28T15:37:21;7.03;;;3.10;;
71503;SDS011;59323;50.874;7.028;2023-05-28T15:39:47;6.67;;;2.70;;
71503;SDS011;59323;50.874;7.028;2023-05-28T15:42:13;9.48;;;3.33;;
71503;SDS011;59323;50.874;7.028;2023-05-28T15:47:33;8.35;;;2.78;;
71503;SDS011;59323;50.874;7.028;2023-05-28T15:49:59;6.97;;;3.27;;
71503;SDS011;59323;50.874;7.028;2023-05-28T15:52:24;10.40;;;2.95;;
71503;SDS011;59323;50.874;7.028;2023-05-28T15:54:50;8.47;;;2.80;;
71503;SDS011;59323;50.874;7.028;2023-05-28T15:57:15;10.95;;;2.60;;
71503;SDS011;59323;50.874;7.028;2023-05-28T15:59:41;9.13;;;3.00;;
71503;SDS011;59323;50.874;7.028;2023-05-28T16:02:14;7.45;;;2.70;;
71503;SDS011;59323;50.874;7.028;2023-05-28T16:04:57;7.88;;;2.50;;
71503;SDS011;59323;50.874;7.028;2023-05-28T16:07:23;6.60;;;2.67;;
71503;SDS011;59323;50.874;7.028;2023-05-28T16:09:58;7.25;;;2.90;;
71503;SDS011;59323;50.874;7.028;2023-05-28T16:12:29;9.10;;;3.22;;
71503;SDS011;59323;50.874;7.028;2023-05-28T16:14:57;6.97;;;2.72;;
71503;SDS011;59323;50.874;7.028;2023-05-28T16:17:23;9.20;;;3.63;;
71503;SDS011;59323;50.874;7.028;2023-05-28T16:19:53;8.43;;;2.90;;
71503;SDS011;59323;50.874;7.028;2023-05-28T16:22:20;6.57;;;2.63;;
71503;SDS011;59323;50.874;7.028;2023-05-28T16:24:48;5.85;;;2.72;;
71503;SDS011;59323;50.874;7.028;2023-05-28T16:27:17;7.85;;;2.88;;
71503;SDS011;59323;50.874;7.028;2023-05-28T16:30:06;9.67;;;3.13;;
71503;SDS011;59323;50.874;7.028;2023-05-28T16:35:45;6.93;;;2.67;;
71503;SDS011;59323;50.874;7.028;2023-05-28T16:38:21;7.57;;;2.83;;
71503;SDS011;59323;50.874;7.028;2023-05-28T16:40:53;6.10;;;2.50;;
71503;SDS011;59323;50.874;7.028;2023-05-28T16:43:25;8.53;;;2.83;;
71503;SDS011;59323;50.874;7.028;2023-05-28T16:45:50;6.22;;;2.50;;
71503;SDS011;59323;50.874;7.028;2023-05-28T16:48:20;19.58;;;3.42;;
71503;SDS011;59323;50.874;7.028;2023-05-28T16:50:47;7.63;;;2.70;;
71503;SDS011;59323;50.874;7.028;2023-05-28T16:53:14;6.27;;;2.27;;
71503;SDS011;59323;50.874;7.028;2023-05-28T16:55:40;8.27;;;2.33;;
71503;SDS011;59323;50.874;7.028;2023-05-28T16:58:08;7.03;;;2.35;;
71503;SDS011;59323;50.874;7.028;2023-05-28T17:00:34;7.23;;;2.20;;
71503;SDS011;59323;50.874;7.028;2023-05-28T17:02:59;9.97;;;3.07;;